Time;durP1;ratioP1;P1;durP2;ratioP2;P2;SDS_P1;SDS_P2;PMS_P1;PMS_P2;Temp;Humidity;BMP_temperature;BMP_pressure;BME280_temperature;BME280_humidity;BME280_pressure;Samples;Min_cycle;Max_cycle;Signal;HPM_P1;HPM_P2
2022/08/22 00:02:07;;;;;;;17.80;11.38;;;;;;;;;;4997169;28;20022;-80
2022/08/22 00:04:33;;;;;;;19.35;12.15;;;;;;;;;;4997216;28;20018;-80
2022/08/22 00:07:02;;;;;;;19.73;12.68;;;;;;;;;;5014184;28;20014;-80
2022/08/22 00:09:34;;;;;;;20.83;14.30;;;;;;;;;;5014767;28;20029;-81
2022/08/22 00:12:00;;;;;;;23.88;17.60;;;;;;;;;;5014548;28;20093;-79
2022/08/22 00:14:40;;;;;;;26.77;18.25;;;;;;;;;;4996827;28;20026;-80
2022/08/22 00:17:19;;;;;;;31.70;19.35;;;;;;;;;;5014937;28;20022;-81
2022/08/22 00:19:46;;;;;;;26.10;19.33;;;;;;;;;;5014537;28;20022;-81
2022/08/22 00:22:15;;;;;;;29.10;19.63;;;;;;;;;;5014318;28;20361;-79
2022/08/22 00:24:47;;;;;;;26.42;20.55;;;;;;;;;;5009137;28;20023;-79
2022/08/22 00:27:28;;;;;;;28.63;20.58;;;;;;;;;;4989569;28;20428;-81
2022/08/22 00:30:24;;;;;;;29.42;21.45;;;;;;;;;;4997176;28;20080;-80
2022/08/22 00:32:55;;;;;;;30.55;21.45;;;;;;;;;;4999438;28;20034;-80
2022/08/22 00:35:28;;;;;;;31.80;21.48;;;;;;;;;;5015895;28;20033;-80
2022/08/22 00:38:14;;;;;;;31.83;23.45;;;;;;;;;;5015887;28;20049;-82
2022/08/22 00:40:46;;;;;;;34.00;24.83;;;;;;;;;;5015358;28;20026;-83
2022/08/22 00:43:12;;;;;;;28.70;24.38;;;;;;;;;;5015030;28;20026;-80
2022/08/22 00:45:47;;;;;;;36.22;27.02;;;;;;;;;;5014478;28;20514;-80
2022/08/22 00:48:23;;;;;;;40.15;28.73;;;;;;;;;;5015340;28;20041;-81
2022/08/22 00:51:09;;;;;;;36.70;28.73;;;;;;;;;;4997801;28;20036;-79
2022/08/22 00:53:44;;;;;;;40.58;29.83;;;;;;;;;;5013849;28;20080;-80
2022/08/22 00:56:13;;;;;;;40.13;30.95;;;;;;;;;;5015509;28;20139;-82
2022/08/22 00:58:54;;;;;;;35.38;29.60;;;;;;;;;;5015816;28;20029;-82
2022/08/22 01:01:25;;;;;;;39.83;31.13;;;;;;;;;;5017545;28;20038;-81
2022/08/22 01:04:08;;;;;;;45.03;30.92;;;;;;;;;;4997418;28;20029;-82
2022/08/22 01:06:48;;;;;;;45.63;31.60;;;;;;;;;;5011043;28;20040;-82
2022/08/22 01:09:24;;;;;;;39.13;30.77;;;;;;;;;;4996320;28;20506;-79
2022/08/22 01:11:57;;;;;;;39.03;32.22;;;;;;;;;;5011563;28;20432;-80
2022/08/22 01:14:30;;;;;;;45.10;33.20;;;;;;;;;;5013402;28;20475;-80
2022/08/22 01:16:59;;;;;;;44.30;31.98;;;;;;;;;;5013463;28;20392;-82
2022/08/22 01:19:44;;;;;;;42.45;32.33;;;;;;;;;;5013225;28;20022;-80
2022/08/22 01:22:26;;;;;;;49.35;36.72;;;;;;;;;;4995754;28;20061;-80
2022/08/22 01:25:30;;;;;;;50.67;38.47;;;;;;;;;;5000987;28;20022;-78
2022/08/22 01:28:16;;;;;;;66.13;41.20;;;21.30;47.80;;;;;;4899024;29;20487;-79
2022/08/22 01:31:00;;;;;;;50.60;38.38;;;;;;;;;;4896986;29;20044;-81
2022/08/22 01:34:00;;;;;;;53.72;40.15;;;21.00;52.30;;;;;;4972532;28;20550;-79
2022/08/22 01:36:54;;;;;;;55.83;39.28;;;20.90;52.20;;;;;;5012873;28;20376;-80
2022/08/22 01:39:53;;;;;;;57.63;43.35;;;20.80;54.40;;;;;;5013032;28;20026;-81
2022/08/22 01:42:47;;;;;;;61.85;43.03;;;20.80;53.60;;;;;;5012977;28;20077;-81
2022/08/22 01:45:51;;;;;;;50.08;41.28;;;20.80;52.70;;;;;;5012762;28;20038;-80
2022/08/22 01:48:29;;;;;;;51.47;41.72;;;20.80;53.70;;;;;;4964627;28;20030;-82
2022/08/22 01:51:04;;;;;;;54.00;43.45;;;20.80;53.40;;;;;;5012717;28;20022;-81
2022/08/22 01:53:36;;;;;;;54.97;43.95;;;20.80;52.90;;;;;;5012718;28;20096;-82
2022/08/22 01:56:16;;;;;;;53.60;42.40;;;20.80;52.20;;;;;;5012922;28;20042;-81
2022/08/22 01:58:53;;;;;;;53.05;41.97;;;20.70;52.60;;;;;;4995032;28;20033;-82
2022/08/22 02:01:38;;;;;;;;;;;20.70;53.20;;;;;;4995742;28;20021;-82
2022/08/22 02:04:34;;;;;;;50.60;40.90;;;20.70;52.30;;;;;;4998206;28;19913;-80
2022/08/22 02:07:03;;;;;;;56.50;43.10;;;20.60;52.80;;;;;;5009003;28;20104;-81
2022/08/22 02:09:44;;;;;;;55.28;44.40;;;20.60;53.40;;;;;;5012832;28;20049;-81
2022/08/22 02:12:40;;;;;;;59.13;44.65;;;20.60;53.20;;;;;;5008941;28;20018;-81
2022/08/22 02:15:38;;;;;;;56.30;43.25;;;20.70;52.80;;;;;;5012420;28;20065;-80
2022/08/22 02:18:07;;;;;;;63.97;46.90;;;20.60;52.90;;;;;;5012289;28;20018;-81
2022/08/22 02:20:54;;;;;;;57.95;44.70;;;20.60;52.80;;;;;;5012082;28;20065;-80
2022/08/22 02:23:26;;;;;;;58.33;44.47;;;20.60;53.20;;;;;;4976214;28;20141;-81
2022/08/22 02:25:55;;;;;;;55.03;44.42;;;20.60;53.10;;;;;;5009566;28;20026;-80
2022/08/22 02:28:51;;;;;;;51.78;41.78;;;20.60;53.20;;;;;;5012321;28;20022;-81
2022/08/22 02:31:32;;;;;;;52.83;43.70;;;20.60;53.20;;;;;;5011251;28;20054;-80
2022/08/22 02:34:02;;;;;;;53.67;43.22;;;20.70;53.30;;;;;;4994390;28;20035;-81
2022/08/22 02:36:42;;;;;;;62.30;42.70;;;20.70;54.50;;;;;;5012041;28;20078;-80
2022/08/22 02:39:35;;;;;;;54.58;41.78;;;20.70;53.40;;;;;;5011920;28;20380;-81
2022/08/22 02:42:21;;;;;;;52.65;42.63;;;20.70;53.20;;;;;;5005950;28;20060;-82
2022/08/22 02:45:13;;;;;;;53.17;44.13;;;20.70;53.20;;;;;;4989286;28;20046;-80
2022/08/22 02:48:26;;;;;;;66.20;49.28;;;20.70;53.20;;;;;;4992671;28;20026;-81
2022/08/22 02:51:08;;;;;;;70.70;52.67;;;20.70;52.90;;;;;;4990016;28;20038;-81
2022/08/22 02:53:54;;;;;;;71.05;54.42;;;20.70;52.70;;;;;;4986896;28;20030;-81
2022/08/22 02:56:36;;;;;;;74.27;57.93;;;20.70;53.10;;;;;;4992531;28;20039;-82
2022/08/22 02:59:32;;;;;;;75.07;57.10;;;20.70;52.80;;;;;;4985545;28;20261;-80
2022/08/22 03:02:26;;;;;;;78.07;58.40;;;20.70;52.60;;;;;;4992253;28;20081;-80
2022/08/22 03:04:59;;;;;;;76.72;58.47;;;20.70;52.30;;;;;;4988315;28;20023;-82
2022/08/22 03:07:35;;;;;;;95.75;66.57;;;20.80;52.50;;;;;;4992475;28;20116;-82
2022/08/22 03:10:06;;;;;;;81.63;65.72;;;20.70;52.10;;;;;;4995701;28;20029;-80
2022/08/22 03:12:42;;;;;;;82.30;66.00;;;20.80;51.90;;;;;;5001113;28;20062;-81
2022/08/22 03:15:23;;;;;;;82.35;64.95;;;20.80;51.90;;;;;;5006118;28;20073;-80
2022/08/22 03:18:02;;;;;;;83.10;67.50;;;20.90;51.90;;;;;;5000728;28;20037;-81
2022/08/22 03:20:44;;;;;;;82.85;65.28;;;20.80;51.60;;;;;;4992700;28;20027;-80
2022/08/22 03:23:54;;;;;;;87.63;64.95;;;20.90;51.60;;;;;;4985634;28;20026;-80
2022/08/22 03:26:45;;;;;;;88.57;67.07;;;20.90;51.50;;;;;;4975951;28;20116;-81
2022/08/22 03:29:18;;;;;;;85.72;67.53;;;20.90;51.70;;;;;;4995861;28;20030;-80
2022/08/22 03:32:12;;;;;;;79.63;65.45;;;20.90;51.80;;;;;;4996552;28;20419;-81
2022/08/22 03:34:57;;;;;;;77.45;64.15;;;20.90;51.70;;;;;;4996149;28;20031;-82
2022/08/22 03:37:39;;;;;;;83.68;63.75;;;20.90;51.80;;;;;;4995964;28;20041;-80
2022/08/22 03:40:42;;;;;;;81.40;64.72;;;20.90;51.60;;;;;;4988434;28;20042;-81
2022/08/22 03:43:24;;;;;;;80.97;63.28;;;20.90;51.60;;;;;;4992713;28;20072;-81
2022/08/22 03:46:01;;;;;;;87.05;63.63;;;20.90;51.70;;;;;;5008278;28;20195;-81
2022/08/22 03:49:05;;;;;;;85.13;64.38;;;20.90;51.80;;;;;;5009331;28;20479;-80
2022/08/22 03:51:54;;;;;;;80.43;62.65;;;20.90;51.70;;;;;;5014379;28;20013;-80
2022/08/22 03:54:45;;;;;;;84.53;64.25;;;20.90;51.50;;;;;;5008643;28;20033;-81
2022/08/22 03:57:41;;;;;;;84.97;62.83;;;21.00;51.40;;;;;;5014821;28;20045;-81
2022/08/22 04:00:45;;;;;;;77.13;62.22;;;21.00;51.50;;;;;;4987008;28;20450;-81
2022/08/22 04:03:13;;;;;;;83.72;60.88;;;21.10;51.30;;;;;;5008912;28;20045;-80
2022/08/22 04:05:57;;;;;;;81.10;59.50;;;21.10;51.20;;;;;;5014793;28;20052;-79
2022/08/22 04:08:47;;;;;;;75.40;59.70;;;21.20;51.20;;;;;;5014737;28;20109;-82
2022/08/22 04:11:59;;;;;;;74.78;57.47;;;21.30;51.10;;;;;;5008087;28;20473;-80
2022/08/22 04:14:40;;;;;;;77.18;59.78;;;21.40;51.10;;;;;;4967604;28;20128;-82
2022/08/22 04:17:25;;;;;;;74.85;58.00;;;21.50;51.20;;;;;;5003707;28;20045;-81
2022/08/22 04:19:57;;;;;;;74.38;59.50;;;21.50;50.70;;;;;;5014618;28;20061;-83
2022/08/22 04:22:57;;;;;;;88.70;58.75;;;21.60;50.40;;;;;;5014436;28;20337;-81
2022/08/22 04:25:34;;;;;;;70.07;58.00;;;21.70;50.40;;;;;;5015016;28;20026;-80
2022/08/22 04:28:23;;;;;;;85.40;59.40;;;21.70;50.40;;;;;;5014327;28;20018;-80
2022/08/22 04:31:01;;;;;;;76.63;60.65;;;21.80;50.30;;;;;;5014376;28;20014;-81
2022/08/22 04:33:34;;;;;;;80.78;61.40;;;21.90;50.40;;;;;;4996373;28;20026;-79
2022/08/22 04:36:23;;;;;;;74.68;59.38;;;22.10;49.80;;;;;;5014119;28;20030;-82
2022/08/22 04:39:07;;;;;;;74.93;60.50;;;22.30;49.60;;;;;;5014076;28;20092;-81
2022/08/22 04:41:42;;;;;;;72.53;60.83;;;22.40;49.10;;;;;;5014062;28;20485;-82
2022/08/22 04:44:20;;;;;;;83.20;65.25;;;22.50;49.10;;;;;;5013741;28;20049;-82
2022/08/22 04:47:08;;;;;;;76.57;61.15;;;22.60;48.80;;;;;;5006429;28;20395;-80
2022/08/22 04:49:50;;;;;;;83.38;61.50;;;22.60;48.70;;;;;;5009674;28;20022;-82
2022/08/22 04:52:34;;;;;;;88.10;62.10;;;22.70;48.60;;;;;;4980448;28;20048;-83
2022/08/22 04:55:37;;;;;;;78.18;61.25;;;22.80;48.40;;;;;;5007850;28;20500;-81
2022/08/22 04:58:31;;;;;;;80.20;63.28;;;23.10;48.50;;;;;;5009631;28;20058;-81
2022/08/22 05:01:17;;;;;;;79.30;59.67;;;23.30;47.70;;;;;;5013722;28;20021;-81
2022/08/22 05:03:52;;;;;;;97.15;65.38;;;23.30;47.60;;;;;;4993222;28;20549;-81
2022/08/22 05:06:21;;;;;;;81.15;61.85;;;23.50;47.60;;;;;;5014187;28;20053;-81
2022/08/22 05:08:49;;;;;;;80.80;62.35;;;23.80;47.50;;;;;;5013702;28;20387;-81
2022/08/22 05:11:18;;;;;;;79.80;63.42;;;24.00;46.90;;;;;;5013829;28;20472;-82
2022/08/22 05:13:50;;;;;;;75.95;63.53;;;24.10;46.90;;;;;;5014318;28;20467;-81
2022/08/22 05:16:39;;;;;;;78.72;59.80;;;24.30;46.70;;;;;;5015894;28;20030;-80
2022/08/22 05:19:18;;;;;;;79.25;62.38;;;24.60;46.20;;;;;;5019427;28;20045;-83
2022/08/22 05:21:48;;;;;;;75.20;62.30;;;24.90;45.70;;;;;;5013789;28;20427;-81
2022/08/22 05:24:18;;;;;;;74.38;61.47;;;25.00;45.30;;;;;;5013754;28;20212;-80
2022/08/22 05:26:49;;;;;;;68.80;60.60;;;25.20;45.30;;;;;;5001079;28;20116;-81
2022/08/22 05:29:20;;;;;;;78.10;62.03;;;25.50;45.00;;;;;;5018348;28;20022;-81
2022/08/22 05:31:59;;;;;;;74.30;59.67;;;25.80;44.50;;;;;;5016540;28;20032;-81
2022/08/22 05:34:30;;;;;;;81.35;62.35;;;26.20;44.60;;;;;;5013752;28;20029;-82
2022/08/22 05:37:13;;;;;;;79.57;60.75;;;26.70;43.70;;;;;;5013316;28;20034;-82
2022/08/22 05:39:45;;;;;;;82.10;62.67;;;26.90;42.90;;;;;;5010939;28;20018;-84
2022/08/22 05:42:33;;;;;;;84.50;62.08;;;26.70;42.60;;;;;;5013443;28;20033;-84
2022/08/22 05:45:05;;;;;;;78.30;65.38;;;26.40;42.90;;;;;;5011634;28;20473;-82
2022/08/22 05:47:38;;;;;;;83.97;65.63;;;26.00;43.60;;;;;;5012929;28;20021;-82
2022/08/22 05:50:13;;;;;;;93.05;68.57;;;25.80;44.60;;;;;;4980796;28;20030;-82
2022/08/22 05:53:05;;;;;;;86.07;71.53;;;25.60;44.30;;;;;;4993490;28;20020;-84
2022/08/22 05:56:01;;;;;;;88.70;69.05;;;25.80;44.80;;;;;;5006704;28;20576;-82
2022/08/22 05:58:36;;;;;;;;;;;26.40;44.10;;;;;;4991844;28;20026;-85
2022/08/22 06:01:28;;;;;;;85.85;71.80;;;27.20;43.40;;;;;;5002637;28;19914;-83
2022/08/22 06:04:13;;;;;;;93.65;73.25;;;27.30;42.40;;;;;;5000784;28;20025;-81
2022/08/22 06:06:50;;;;;;;84.55;71.85;;;27.20;42.30;;;;;;5014854;28;20049;-84
2022/08/22 06:09:24;;;;;;;;;;;27.00;42.50;;;;;;4996156;28;20494;-84
2022/08/22 06:12:01;;;;;;;96.32;77.93;;;27.00;43.00;;;;;;5012794;28;19948;-84
2022/08/22 06:14:45;;;;;;;92.80;78.85;;;27.10;42.60;;;;;;5012994;28;20029;-85
2022/08/22 06:17:16;;;;;;;99.35;79.45;;;27.30;42.30;;;;;;5012699;28;20049;-84
2022/08/22 06:19:49;;;;;;;97.68;79.53;;;27.60;42.30;;;;;;5013166;28;20032;-87
2022/08/22 06:22:22;;;;;;;95.32;77.70;;;;;;;;;;5012603;28;20029;-85
2022/08/22 06:24:50;;;;;;;94.13;77.47;;;28.30;42.00;;;;;;5012413;28;20021;-84
2022/08/22 06:27:22;;;;;;;87.35;77.18;;;29.20;40.80;;;;;;4998517;28;20126;-83
2022/08/22 06:29:57;;;;;;;99.72;77.75;;;29.40;40.40;;;;;;5006040;28;20029;-84
2022/08/22 06:32:30;;;;;;;86.13;74.50;;;29.60;39.90;;;;;;5006651;28;20014;-81
2022/08/22 06:35:17;;;;;;;84.80;73.63;;;30.00;39.60;;;;;;5012883;28;20029;-82
2022/08/22 06:37:46;;;;;;;90.28;70.45;;;30.40;38.90;;;;;;5014425;28;20069;-82
2022/08/22 06:40:15;;;;;;;86.82;69.35;;;31.00;38.50;;;;;;5015697;28;20156;-83
2022/08/22 06:42:48;;;;;;;85.82;72.18;;;31.20;37.60;;;;;;5017055;28;20365;-84
2022/08/22 06:45:29;;;;;;;81.60;68.68;;;31.30;37.80;;;;;;5014754;28;20057;-88
2022/08/22 06:48:04;;;;;;;87.68;72.13;;;31.20;38.10;;;;;;5014161;28;20109;-81
2022/08/22 06:50:39;;;;;;;83.38;71.25;;;31.10;37.50;;;;;;5008644;28;20022;-85
2022/08/22 06:53:18;;;;;;;76.43;67.07;;;30.40;38.30;;;;;;4995340;28;20026;-85
2022/08/22 06:55:50;;;;;;;78.65;64.70;;;29.20;39.30;;;;;;4986155;28;20396;-86
2022/08/22 06:58:43;;;;;;;75.60;65.78;;;28.10;40.50;;;;;;5011672;28;20029;-85
2022/08/22 07:01:17;;;;;;;76.75;67.75;;;27.10;41.80;;;;;;5004353;28;20325;-85
2022/08/22 07:03:45;;;;;;;84.20;68.72;;;26.60;43.10;;;;;;5000243;28;20081;-85
2022/08/22 07:06:28;;;;;;;85.40;70.95;;;26.80;43.30;;;;;;5014791;28;20022;-85
2022/08/22 07:08:55;;;;;;;84.95;71.07;;;28.10;42.50;;;;;;5015714;28;20030;-87
2022/08/22 07:11:35;;;;;;;75.28;66.95;;;29.70;40.70;;;;;;5012884;28;20021;-83
2022/08/22 07:14:10;;;;;;;80.60;69.20;;;31.00;39.10;;;;;;5014346;28;20042;-85
2022/08/22 07:16:54;;;;;;;78.55;69.35;;;31.90;37.90;;;;;;5023298;28;20030;-85
2022/08/22 07:19:44;;;;;;;82.18;70.45;;;32.20;37.30;;;;;;5027808;28;20041;-85
2022/08/22 07:22:24;;;;;;;75.10;67.22;;;32.50;37.20;;;;;;5019044;28;20025;-87
2022/08/22 07:24:59;;;;;;;81.75;69.18;;;32.40;37.10;;;;;;4998651;28;20026;-86
2022/08/22 07:27:43;;;;;;;76.78;66.05;;;32.70;36.90;;;;;;5015947;28;20068;-86
2022/08/22 07:30:21;;;;;;;77.30;64.43;;;33.10;36.50;;;;;;5018138;28;20101;-86
2022/08/22 07:32:58;;;;;;;74.55;58.75;;;33.50;36.80;;;;;;5015923;28;20034;-86
2022/08/22 07:35:27;;;;;;;;;;;34.20;35.60;;;;;;5014087;28;20101;-86
2022/08/22 07:38:06;;;;;;;76.63;64.25;;;34.80;35.70;;;;;;5015186;28;19905;-86
2022/08/22 07:41:01;;;;;;;75.43;59.08;;;35.10;34.60;;;;;;5013873;28;20057;-86
2022/08/22 07:43:34;;;;;;;77.45;58.10;;;35.00;34.50;;;;;;5014274;28;20030;-85
2022/08/22 07:46:26;;;;;;;67.90;58.38;;;34.90;34.70;;;;;;5014110;28;20054;-85
2022/08/22 07:49:21;;;;;;;72.68;64.40;;;34.80;34.80;;;;;;5017791;28;20068;-85
2022/08/22 07:51:55;;;;;;;78.65;66.43;;;34.70;35.20;;;;;;5013188;28;20022;-86
2022/08/22 07:54:24;;;;;;;76.70;65.93;;;34.50;35.10;;;;;;4989726;28;20516;-87
2022/08/22 07:57:02;;;;;;;76.60;65.15;;;34.40;35.30;;;;;;5019136;28;20014;-85
2022/08/22 07:59:30;;;;;;;72.15;60.33;;;34.80;35.10;;;;;;5024493;28;20033;-87
2022/08/22 08:01:58;;;;;;;74.85;61.10;;;35.00;34.50;;;;;;5019048;28;20079;-87
2022/08/22 08:04:33;;;;;;;71.85;62.20;;;35.00;34.60;;;;;;5019328;28;20037;-87
2022/08/22 08:07:02;;;;;;;70.32;60.70;;;35.00;34.40;;;;;;5001856;28;20371;-86
2022/08/22 08:09:33;;;;;;;73.88;62.88;;;35.20;34.50;;;;;;5015505;28;20423;-87
2022/08/22 08:12:02;;;;;;;71.18;63.45;;;35.50;34.10;;;;;;5017892;28;20117;-86
2022/08/22 08:14:29;;;;;;;71.95;62.75;;;35.70;34.00;;;;;;5016280;28;20029;-86
2022/08/22 08:17:26;;;;;;;78.50;67.80;;;36.20;33.90;;;;;;5017613;28;20084;-87
2022/08/22 08:19:55;;;;;;;79.18;67.10;;;36.80;33.60;;;;;;5007497;28;20080;-87
2022/08/22 08:22:24;;;;;;;83.45;69.10;;;36.80;32.60;;;;;;5017682;28;20026;-87
2022/08/22 08:24:54;;;;;;;83.53;71.15;;;36.50;32.80;;;;;;5016251;28;20033;-87
2022/08/22 08:30:13;;;;;;;85.78;69.47;;;35.50;34.10;;;;;;5017177;28;20056;-85
2022/08/22 08:32:40;;;;;;;90.78;70.90;;;35.30;34.60;;;;;;5017632;28;20040;-87
2022/08/22 08:35:14;;;;;;;72.22;62.80;;;35.50;34.40;;;;;;4999151;28;20041;-86
2022/08/22 08:37:48;;;;;;;80.57;64.65;;;35.90;33.80;;;;;;4998801;28;20045;-86
2022/08/22 08:40:29;;;;;;;71.47;62.40;;;36.30;34.10;;;;;;5016523;28;20196;-86
2022/08/22 08:46:08;;;;;;;71.28;59.92;;;37.50;32.80;;;;;;4964171;28;20408;-86
2022/08/22 08:49:13;;;;;;;77.35;66.80;;;38.40;32.10;;;;;;4995338;28;20113;-86
2022/08/22 08:51:58;;;;;;;69.57;58.72;;;;;;;;;;4997327;28;20026;-86
2022/08/22 08:54:28;;;;;;;60.45;53.92;;;;;;;;;;4992466;28;20031;-88
2022/08/22 08:57:02;;;;;;;53.72;46.55;;;;;;;;;;4997888;28;20030;-87
2022/08/22 08:59:33;;;;;;;51.40;45.85;;;;;;;;;;4998503;28;20030;-87
2022/08/22 09:02:06;;;;;;;62.90;50.00;;;;;;;;;;5009986;28;20007;-86
2022/08/22 09:05:04;;;;;;;55.28;47.85;;;;;;;;;;5010407;28;20026;-87
2022/08/22 09:07:51;;;;;;;53.90;47.97;;;39.60;32.10;;;;;;4999065;28;20045;-86
2022/08/22 09:10:32;;;;;;;58.22;49.50;;;;;;;;;;5000693;28;20368;-86
2022/08/22 09:13:01;;;;;;;59.38;48.80;;;;;;;;;;4997280;28;20022;-89
2022/08/22 09:15:45;;;;;;;63.60;47.65;;;;;;;;;;4997281;28;20038;-87
2022/08/22 09:18:25;;;;;;;53.45;47.33;;;;;;;;;;4995529;28;20053;-85
2022/08/22 09:21:10;;;;;;;56.38;46.30;;;;;;;;;;4997479;28;20027;-85
2022/08/22 09:23:46;;;;;;;52.85;44.88;;;;;;;;;;4996878;28;20034;-88
2022/08/22 09:26:32;;;;;;;55.20;43.60;;;;;;;;;;4996667;28;20472;-86
2022/08/22 09:29:04;;;;;;;49.55;43.58;;;;;;;;;;5000236;28;20058;-85
2022/08/22 09:31:30;;;;;;;52.97;45.55;;;;;;;;;;4985653;28;20037;-88
2022/08/22 09:34:08;;;;;;;57.85;46.30;;;;;;;;;;4995147;28;20018;-87
2022/08/22 09:36:50;;;;;;;55.33;48.38;;;;;;;;;;4995535;28;20605;-88
2022/08/22 09:39:20;;;;;;;56.30;49.33;;;;;;;;;;4998513;28;20115;-85
2022/08/22 09:41:58;;;;;;;60.45;46.78;;;;;;;;;;4995267;28;20045;-85
2022/08/22 09:44:31;;;;;;;54.72;46.88;;;;;;;;;;4998908;28;20098;-85
2022/08/22 09:47:05;;;;;;;58.65;46.45;;;;;;;;;;5021999;28;20057;-86
2022/08/22 09:50:02;;;;;;;56.50;47.13;;;42.10;28.70;;;;;;5016290;28;20026;-86
2022/08/22 09:52:50;;;;;;;54.38;48.55;;;39.00;31.80;;;;;;5017728;28;20027;-87
2022/08/22 09:55:25;;;;;;;57.67;48.53;;;38.80;31.50;;;;;;5005152;28;20018;-85
2022/08/22 09:57:58;;;;;;;55.75;45.47;;;39.00;31.80;;;;;;5024430;28;20026;-86
2022/08/22 10:00:43;;;;;;;59.88;48.67;;;39.90;31.30;;;;;;5025253;28;20093;-86
2022/08/22 10:03:28;;;;;;;55.00;46.72;;;40.80;30.60;;;;;;5017943;28;20022;-87
2022/08/22 10:06:13;;;;;;;58.50;47.10;;;;;;;;;;4998098;28;20045;-87
2022/08/22 10:09:10;;;;;;;53.40;43.10;;;41.50;29.60;;;;;;5015860;28;20102;-87
2022/08/22 10:12:05;;;;;;;51.33;37.90;;;41.50;29.70;;;;;;5010719;28;20076;-86
2022/08/22 10:14:52;;;;;;;42.60;35.35;;;40.80;29.80;;;;;;5007846;28;20057;-87
2022/08/22 10:17:35;;;;;;;52.65;39.08;;;40.20;29.80;;;;;;5014513;28;20509;-86
2022/08/22 10:20:26;;;;;;;39.38;34.88;;;39.10;30.90;;;;;;4997338;28;20049;-85
2022/08/22 10:23:04;;;;;;;43.42;38.03;;;39.20;30.80;;;;;;5014800;28;20445;-86
2022/08/22 10:25:41;;;;;;;44.58;38.03;;;39.80;30.90;;;;;;5015210;28;20064;-87
2022/08/22 10:28:07;;;;;;;47.45;41.80;;;40.40;30.60;;;;;;5000682;28;20053;-89
2022/08/22 10:30:49;;;;;;;42.72;36.25;;;40.00;30.30;;;;;;5014919;28;20028;-87
2022/08/22 10:33:30;;;;;;;40.15;33.67;;;39.00;30.70;;;;;;5014610;28;20025;-86
2022/08/22 10:36:02;;;;;;;44.97;35.28;;;37.60;31.60;;;;;;5014440;28;20034;-87
2022/08/22 10:38:37;;;;;;;41.88;31.52;;;36.10;33.60;;;;;;5020293;28;20022;-86
2022/08/22 10:41:26;;;;;;;41.65;32.35;;;35.10;33.80;;;;;;5015423;28;20026;-86
2022/08/22 10:43:57;;;;;;;36.25;29.35;;;34.40;34.70;;;;;;5012978;28;20096;-87
2022/08/22 10:46:55;;;;;;;31.42;26.10;;;33.90;34.90;;;;;;5014193;28;20042;-86
2022/08/22 10:49:35;;;;;;;40.00;28.08;;;33.30;35.40;;;;;;4996823;28;20046;-87
2022/08/22 10:52:11;;;;;;;36.78;27.88;;;32.80;36.10;;;;;;5011465;28;20014;-87
2022/08/22 10:54:50;;;;;;;40.80;29.00;;;32.60;36.50;;;;;;5006423;28;20059;-85
2022/08/22 10:57:35;;;;;;;35.78;27.75;;;32.20;37.20;;;;;;5017072;28;20064;-85
2022/08/22 11:00:47;;;;;;;26.10;23.13;;;32.10;37.00;;;;;;4995711;28;20060;-88
2022/08/22 11:03:32;;;;;;;29.75;23.90;;;31.80;36.80;;;;;;4996171;28;20022;-86
2022/08/22 11:06:02;;;;;;;33.03;24.25;;;31.30;37.70;;;;;;4999243;28;20022;-86
2022/08/22 11:08:51;;;;;;;37.17;26.80;;;31.10;38.10;;;;;;5017532;28;20487;-85
2022/08/22 11:11:54;;;;;;;29.35;24.67;;;31.00;38.60;;;;;;5016531;28;20065;-86
2022/08/22 11:14:29;;;;;;;30.67;22.33;;;31.10;38.80;;;;;;5001618;28;20438;-86
2022/08/22 11:17:49;;;;;;;32.55;18.25;;;31.10;38.70;;;;;;5018768;28;20034;-86
2022/08/22 11:21:05;;;;;;;19.15;16.02;;;31.10;38.20;;;;;;5008397;28;20026;-85
2022/08/22 11:24:12;;;;;;;28.90;15.88;;;31.00;38.00;;;;;;5007673;28;20033;-86
2022/08/22 11:26:48;;;;;;;23.70;15.68;;;30.80;38.40;;;;;;4946919;28;20066;-86
2022/08/22 11:29:20;;;;;;;21.88;13.40;;;30.70;38.40;;;;;;5009213;28;20026;-86
2022/08/22 11:31:49;;;;;;;16.88;13.75;;;30.50;38.20;;;;;;5012294;28;20357;-87
2022/08/22 11:35:08;;;;;;;23.08;14.80;;;30.40;38.50;;;;;;5013103;28;20117;-86
2022/08/22 11:37:45;;;;;;;20.17;17.20;;;30.40;38.90;;;;;;4931661;29;20039;-87
2022/08/22 11:40:29;;;;;;;23.17;19.38;;;30.50;39.40;;;;;;4933565;29;20032;-86
2022/08/22 11:43:07;;;;;;;23.25;16.92;;;30.70;39.50;;;;;;4984861;28;20038;-88
2022/08/22 11:45:45;;;;;;;24.63;17.77;;;30.80;39.40;;;;;;5017429;28;20046;-84
2022/08/22 11:48:44;;;;;;;14.40;9.65;;;31.00;39.60;;;;;;5017256;28;20148;-86
2022/08/22 11:51:26;;;;;;;15.48;10.52;;;31.20;37.10;;;;;;5013109;28;20030;-86
2022/08/22 11:54:10;;;;;;;16.88;11.13;;;31.20;37.40;;;;;;5018421;28;20029;-87
2022/08/22 11:56:42;;;;;;;22.20;11.65;;;31.10;37.60;;;;;;5001177;28;20419;-88
2022/08/22 11:59:39;;;;;;;22.45;10.15;;;31.10;37.60;;;;;;5017610;28;20037;-87
2022/08/22 12:02:16;;;;;;;16.15;9.55;;;31.20;37.60;;;;;;4998412;28;20014;-86
2022/08/22 12:04:51;;;;;;;14.23;9.60;;;31.30;37.80;;;;;;5016122;28;20060;-87
2022/08/22 12:07:36;;;;;;;25.02;17.50;;;31.40;37.70;;;;;;4999336;28;20026;-84
2022/08/22 12:10:34;;;;;;;26.98;17.00;;;31.40;37.70;;;;;;5016636;28;20030;-85
2022/08/22 12:13:07;;;;;;;23.33;16.20;;;31.30;38.10;;;;;;5003899;28;20137;-85
2022/08/22 12:16:06;;;;;;;20.08;16.48;;;31.10;37.70;;;;;;5018493;28;20508;-84
2022/08/22 12:18:53;;;;;;;25.17;17.98;;;31.00;38.40;;;;;;5020255;28;20053;-85
2022/08/22 12:21:36;;;;;;;22.00;15.07;;;30.90;38.80;;;;;;5005809;28;20096;-87
2022/08/22 12:24:30;;;;;;;24.45;15.40;;;30.80;38.60;;;;;;5021281;28;20026;-86
2022/08/22 12:27:21;;;;;;;25.58;20.30;;;30.70;38.90;;;;;;5017200;28;20061;-87
2022/08/22 12:30:34;;;;;;;29.27;20.02;;;30.70;39.20;;;;;;5003386;28;20014;-86
2022/08/22 12:33:09;;;;;;;32.38;19.90;;;30.70;39.40;;;;;;4936258;29;20039;-87
2022/08/22 12:36:02;;;;;;;33.00;19.67;;;30.60;40.00;;;;;;5020736;28;20396;-86
2022/08/22 12:39:06;;;;;;;25.50;17.10;;;30.60;40.00;;;;;;5004673;28;20025;-86
2022/08/22 12:42:00;;;;;;;25.55;18.27;;;30.50;39.80;;;;;;4979340;28;20065;-86
2022/08/22 12:44:29;;;;;;;29.98;14.20;;;30.50;39.70;;;;;;4998850;28;20022;-86
2022/08/22 12:47:22;;;;;;;17.52;12.98;;;30.50;39.30;;;;;;5017141;28;20438;-86
2022/08/22 12:50:12;;;;;;;16.85;12.05;;;30.40;39.20;;;;;;5015718;28;20018;-86
2022/08/22 12:53:05;;;;;;;17.48;10.35;;;30.40;39.30;;;;;;5015721;28;20364;-86
2022/08/22 12:55:46;;;;;;;16.08;10.43;;;30.30;39.50;;;;;;5003920;28;20117;-85
2022/08/22 12:58:44;;;;;;;16.05;9.10;;;30.20;39.30;;;;;;5015374;28;20466;-85
2022/08/22 13:01:11;;;;;;;21.05;9.68;;;30.20;39.30;;;;;;5019484;28;20026;-86
2022/08/22 13:03:58;;;;;;;;;;;30.20;39.50;;;;;;5014830;28;20025;-88
2022/08/22 13:06:35;;;;;;;18.90;9.02;;;30.20;39.30;;;;;;5007337;28;19963;-85
2022/08/22 13:09:18;;;;;;;13.57;8.32;;;30.20;39.70;;;;;;5015272;28;20064;-85
2022/08/22 13:11:47;;;;;;;22.70;8.95;;;30.20;39.90;;;;;;5012966;28;20175;-86
2022/08/22 13:14:19;;;;;;;12.43;5.22;;;30.20;39.90;;;;;;5016208;28;20017;-85
2022/08/22 13:16:49;;;;;;;13.40;6.35;;;30.30;39.50;;;;;;5012049;28;20034;-84
2022/08/22 13:19:32;;;;;;;10.65;4.90;;;30.30;39.50;;;;;;5013077;28;20083;-85
2022/08/22 13:22:11;;;;;;;11.48;4.70;;;30.30;39.30;;;;;;4996445;28;20029;-86
2022/08/22 13:25:10;;;;;;;13.40;5.10;;;30.30;39.20;;;;;;5009770;28;20025;-87
2022/08/22 13:27:43;;;;;;;13.68;5.60;;;30.30;39.70;;;;;;4980019;28;20066;-86
2022/08/22 13:30:27;;;;;;;13.43;5.43;;;30.20;39.30;;;;;;5015606;28;20093;-87
2022/08/22 13:33:00;;;;;;;15.10;9.73;;;30.20;39.70;;;;;;4999186;28;20049;-86
2022/08/22 13:35:34;;;;;;;9.15;4.70;;;30.20;39.70;;;;;;5016074;28;20030;-87
2022/08/22 13:38:15;;;;;;;8.65;4.38;;;30.30;39.80;;;;;;5014706;28;20029;-85
2022/08/22 13:40:49;;;;;;;10.23;5.22;;;30.30;39.80;;;;;;5017112;28;20037;-87
2022/08/22 13:43:21;;;;;;;13.50;5.10;;;30.40;39.90;;;;;;5017124;28;20450;-86
2022/08/22 13:45:57;;;;;;;18.02;4.60;;;30.40;39.90;;;;;;5015695;28;20050;-85
2022/08/22 13:48:28;;;;;;;9.70;4.80;;;30.50;40.00;;;;;;4991689;28;20055;-85
2022/08/22 13:51:08;;;;;;;18.02;4.90;;;30.50;40.00;;;;;;5004205;28;20599;-85
2022/08/22 13:53:49;;;;;;;10.45;5.13;;;30.50;39.80;;;;;;5001965;28;20029;-86
2022/08/22 13:56:21;;;;;;;12.95;5.20;;;30.60;40.00;;;;;;4996502;28;20038;-86
2022/08/22 13:58:58;;;;;;;8.82;5.35;;;30.60;39.90;;;;;;5015016;28;20411;-87
2022/08/22 14:02:22;;;;;;;13.80;5.37;;;30.60;40.00;;;;;;5014601;28;20121;-85
2022/08/22 14:04:52;;;;;;;16.92;5.90;;;30.50;40.00;;;;;;4891349;29;20330;-86
2022/08/22 14:07:39;;;;;;;13.48;5.72;;;30.40;40.10;;;;;;4916202;29;20020;-86